Pea Ridge, AR

4:13 PM CDT on October 21, 2014 (GMT -0500)
W5VAN | Change Station
CLOSE
Current Station
Personal Weather Station
Location: Rogers, AR
Elevation: 1227 ft
Nearby Weather Stations

Elev 1227 ft 36.42 °N, 94.10 °W | Updated 9 seconds ago

Clear
Clear
75.2 °F
Feels Like 78 °F
N
0.0
Wind Variable Wind from NW
Gusts 0.0 mph

Today
High -- | Low -- °F
--% Chance of Precip.
Yesterday
High -- | Low -- °F
Precip. -- in
7:29 AM 6:32 PM
Waning Crescent, 4% visible
Pressure 30.07 in
Visibility 10.0 miles
Clouds Clear
Heat Index 78 °F
Dew Point 56 °F
Humidity 51%
Rainfall 0.00 in
Snow Depth Not available.
UV 3 out of 12
Pollen 2.20 out of 12
Air Quality Not available.
Flu Activity Sporadic
METAR KROG 212057Z 32006KT 10SM CLR 23/11 A3009 RMK AO2 SLP182 T02280111 56017

More Conditions Fewer Conditions

Pressure 30.07 in
Visibility 10.0 miles
Clouds Clear
Heat Index 78 °F
Dew Point 56 °F
Humidity 51%
Rainfall 0.00 in
Snow Depth Not available.
UV 3 out of 12
Pollen 2.20 out of 12
Air Quality Not available.
Flu Activity Sporadic
METAR KROG 212057Z 32006KT 10SM CLR 23/11 A3009 RMK AO2 SLP182 T02280111 56017

More Conditions Fewer Conditions

10-Day Weather Forecast

Almanac

Astronomy

Oct. 21, 2014 Rise Set
Actual Time 7:29 AM CDT 6:32 PM CDT
Civil Twilight 7:02 AM CDT 6:58 PM CDT
Nautical Twilight 6:32 AM CDT 7:28 PM CDT
Astronomical Twilight 6:02 AM CDT 7:58 PM CDT
Moon 5:17 AM CDT 5:23 PM CDT
Length of Visible Light 11h 55m
Length of Day
11h 03m
Tomorrow will be 2m 10s shorter.
Waning Crescent, 4% of the Moon is Illuminated
Today
Waning Crescent
Oct 23
New
Oct 30
First Quarter
Nov 6
Full
Nov 14
Last Quarter

Today's Extremes

State Highs State Lows

Community

WunderPhotos

Upload Photos

1,763,779 photos uploaded!

WunderBlogs® & News

Nearby

Snow Depth

Station Depth Elevation
No new snow has been reported.

Earthquake Activity

City Distance Mag. Time & Date
No recent earthquake activity has been reported nearby.
Minimum magnitude displayed is 2.5.

Coastal Water Temperatures

Place Temperature
No Stations Reporting

Nearby Weather Stations